Whiskeytown, California
Current Conditions -  °F | °C
As of 11:53 AM on Friday 19 Dec 2014 (Local Time) from KRDD Reporting Station
Overcast Overcast  
Wind Chill: 53°   Ceiling: 1000
Heat Index: 53°   Visibility: 10mi
Dew Point: 50°   Wind: 21mph
Humidity: 89%   Direction: 190°S
Pressure: 30.11"   Gusts: NA
Location:  40.64°N, 122.56°W
Report Text: KRDD 191953Z 19018KT 10SM OVC010 12/10 A3011 RMK AO2 SLP195 T01170100
Loading
Personal Weather Stations






























Interactive Weather Map New forecast layout! Learn more

10-Day Weather Forecast

Advertisements
Track Severe Weather on mobile